createdAt,value
2022-10-02T00:01:07.859Z,100797.59
2022-10-02T00:03:39.989Z,100792.53
2022-10-02T00:06:13.988Z,100805.84
2022-10-02T00:08:42.696Z,100803.66
2022-10-02T00:11:17.409Z,100795.88
2022-10-02T00:13:49.047Z,100796.25
2022-10-02T00:16:27.916Z,100801.47
2022-10-02T00:18:57.290Z,100805.44
2022-10-02T00:21:42.244Z,100806.72
2022-10-02T00:24:15.706Z,100805.19
2022-10-02T00:26:52.924Z,100804.91
2022-10-02T00:29:32.176Z,100797.78
2022-10-02T00:32:23.590Z,100802.91
2022-10-02T00:35:23.199Z,100805.78
2022-10-02T00:38:00.486Z,100805.41
2022-10-02T00:40:43.784Z,100810.41
2022-10-02T00:43:24.782Z,100804.25
2022-10-02T00:46:07.186Z,100810.19
2022-10-02T00:48:51.946Z,100808.44
2022-10-02T00:51:36.344Z,100812.19
2022-10-02T00:54:16.686Z,100819.28
2022-10-02T00:56:53.908Z,100818.19
2022-10-02T00:59:36.929Z,100822.75
2022-10-02T01:02:11.940Z,100820.03
2022-10-02T01:04:42.087Z,100822.41
2022-10-02T01:07:12.389Z,100821.81
2022-10-02T01:09:41.892Z,100827.81
2022-10-02T01:12:09.823Z,100830.53
2022-10-02T01:14:41.151Z,100822.75
2022-10-02T01:17:25.824Z,100825.16
2022-10-02T01:19:53.928Z,100828.72
2022-10-02T01:22:31.117Z,100830.38
2022-10-02T01:25:04.220Z,100834.03
2022-10-02T01:27:35.509Z,100824.47
2022-10-02T01:30:09.387Z,100827.94
2022-10-02T01:32:42.239Z,100821.25
2022-10-02T01:35:10.693Z,100822.28
2022-10-02T01:37:42.567Z,100831.28
2022-10-02T01:40:24.864Z,100825.03
2022-10-02T01:42:53.464Z,100832.59
2022-10-02T01:45:33.841Z,100830.00
2022-10-02T01:48:09.957Z,100831.59
2022-10-02T01:50:49.560Z,100820.22
2022-10-02T01:53:25.512Z,100827.94
2022-10-02T01:56:03.633Z,100829.38
2022-10-02T01:58:44.684Z,100824.72
2022-10-02T02:01:23.533Z,100807.94
2022-10-02T02:04:00.471Z,100825.09
2022-10-02T02:06:32.966Z,100818.84
2022-10-02T02:09:09.204Z,100806.78
2022-10-02T02:11:45.772Z,100787.00
2022-10-02T02:14:17.467Z,100795.31
2022-10-02T02:16:48.993Z,100792.41
2022-10-02T02:19:22.824Z,100796.13
2022-10-02T02:21:56.980Z,100785.66
2022-10-02T02:24:31.250Z,100786.69
2022-10-02T02:27:03.289Z,100788.53
2022-10-02T02:29:34.834Z,100794.63
2022-10-02T02:32:06.839Z,100790.31
2022-10-02T02:34:38.779Z,100782.47
2022-10-02T02:37:16.592Z,100769.97
2022-10-02T02:39:50.695Z,100776.78
2022-10-02T02:42:25.846Z,100767.41
2022-10-02T02:44:58.762Z,100780.66
2022-10-02T02:47:31.043Z,100784.09
2022-10-02T02:50:03.272Z,100783.75
2022-10-02T02:52:34.301Z,100780.00
2022-10-02T02:55:09.309Z,100778.69
2022-10-02T02:57:44.802Z,100773.38
2022-10-02T03:00:15.477Z,100774.81
2022-10-02T03:02:43.688Z,100785.03
2022-10-02T03:05:15.020Z,100779.38
2022-10-02T03:07:50.152Z,100777.38
2022-10-02T03:10:22.531Z,100781.75
2022-10-02T03:13:00.618Z,100765.06
2022-10-02T03:15:32.629Z,100769.34
2022-10-02T03:18:25.927Z,100772.69
2022-10-02T03:21:04.474Z,100775.66
2022-10-02T03:23:37.874Z,100776.63
2022-10-02T03:26:13.334Z,100770.78
2022-10-02T03:28:56.492Z,100768.69
2022-10-02T03:31:27.967Z,100781.56
2022-10-02T03:33:58.375Z,100781.56
2022-10-02T03:36:27.324Z,100779.72
2022-10-02T03:39:23.121Z,100777.47
2022-10-02T03:41:46.886Z,100782.44
2022-10-02T03:44:16.200Z,100782.31
2022-10-02T03:46:44.169Z,100777.56
2022-10-02T03:49:12.383Z,100771.44
2022-10-02T03:51:40.339Z,100774.03
2022-10-02T03:54:16.560Z,100768.19
2022-10-02T03:56:50.829Z,100775.66
2022-10-02T03:59:34.513Z,100774.88
2022-10-02T04:02:06.167Z,100772.06
2022-10-02T04:04:43.666Z,100778.38
2022-10-02T04:07:18.328Z,100774.47
2022-10-02T04:09:53.140Z,100785.78
2022-10-02T04:12:27.880Z,100772.22
2022-10-02T04:15:02.370Z,100776.50
2022-10-02T04:17:43.965Z,100783.41
2022-10-02T04:20:15.975Z,100779.97
2022-10-02T04:22:50.817Z,100787.59
2022-10-02T04:25:21.252Z,100788.47
2022-10-02T04:27:53.397Z,100786.75
2022-10-02T04:30:23.313Z,100791.94
2022-10-02T04:32:51.939Z,100788.47
2022-10-02T04:35:30.474Z,100793.81
2022-10-02T04:38:13.223Z,100799.19
2022-10-02T04:40:56.443Z,100797.78
2022-10-02T04:43:45.112Z,100794.97
2022-10-02T04:46:29.500Z,100793.25
2022-10-02T04:49:27.255Z,100795.34
2022-10-02T04:52:09.070Z,100795.56
2022-10-02T04:55:08.270Z,100799.16
2022-10-02T04:57:54.998Z,100798.00
2022-10-02T05:00:24.987Z,100811.03
2022-10-02T05:03:13.068Z,100804.72
2022-10-02T05:06:03.910Z,100805.72
2022-10-02T05:08:45.172Z,100801.41
2022-10-02T05:11:35.436Z,100812.34
2022-10-02T05:14:17.955Z,100813.84
2022-10-02T05:17:06.599Z,100814.84
2022-10-02T05:19:46.788Z,100810.19
2022-10-02T05:22:33.804Z,100813.59
2022-10-02T05:25:18.024Z,100813.63
2022-10-02T05:28:04.191Z,100816.06
2022-10-02T05:30:46.975Z,100809.84
2022-10-02T05:33:35.690Z,100809.84
2022-10-02T05:36:34.413Z,100816.47
2022-10-02T05:39:09.253Z,100817.19
2022-10-02T05:41:51.339Z,100821.56
2022-10-02T05:44:23.425Z,100828.84
2022-10-02T05:46:58.648Z,100820.66
2022-10-02T05:49:33.836Z,100819.66
2022-10-02T05:52:07.413Z,100832.81
2022-10-02T05:54:49.485Z,100843.41
2022-10-02T05:57:24.445Z,100834.44
2022-10-02T06:00:01.503Z,100837.19
2022-10-02T06:02:39.519Z,100829.50
2022-10-02T06:05:18.402Z,100840.75
2022-10-02T06:07:53.494Z,100848.03
2022-10-02T06:10:28.107Z,100850.53
2022-10-02T06:13:02.226Z,100853.91
2022-10-02T06:15:34.993Z,100865.44
2022-10-02T06:18:08.355Z,100859.94
2022-10-02T06:20:41.464Z,100860.00
2022-10-02T06:23:15.988Z,100865.28
2022-10-02T06:25:47.300Z,100865.94
2022-10-02T06:28:20.761Z,100873.63
2022-10-02T06:30:55.738Z,100866.91
2022-10-02T06:33:26.256Z,100867.84
2022-10-02T06:36:10.449Z,100881.16
2022-10-02T06:38:58.031Z,100875.16
2022-10-02T06:41:34.130Z,100869.69
2022-10-02T06:44:11.631Z,100869.81
2022-10-02T06:46:51.558Z,100863.41
2022-10-02T06:49:30.326Z,100868.44
2022-10-02T06:52:13.381Z,100849.72
2022-10-02T06:55:01.614Z,100849.88
2022-10-02T06:57:48.519Z,100836.88
2022-10-02T07:00:19.463Z,100838.25
2022-10-02T07:03:19.888Z,100837.06
2022-10-02T07:06:22.378Z,100834.81
2022-10-02T07:09:21.637Z,100829.50
2022-10-02T07:11:57.396Z,100834.19
2022-10-02T07:14:36.263Z,100838.50
2022-10-02T07:17:23.059Z,100839.91
2022-10-02T07:20:08.811Z,100839.91
2022-10-02T07:22:50.232Z,100838.63
2022-10-02T07:25:49.762Z,100847.78
2022-10-02T07:28:27.630Z,100850.44
2022-10-02T07:31:05.118Z,100850.31
2022-10-02T07:33:48.778Z,100854.50
2022-10-02T07:36:29.712Z,100862.94
2022-10-02T07:39:09.691Z,100860.94
2022-10-02T07:42:12.941Z,100864.25
2022-10-02T07:44:57.801Z,100881.41
2022-10-02T07:47:42.947Z,100888.13
2022-10-02T07:50:14.525Z,100883.53
2022-10-02T07:52:52.555Z,100887.28
2022-10-02T07:55:22.838Z,100884.25
2022-10-02T07:58:01.370Z,100892.78
2022-10-02T08:00:36.437Z,100891.72
2022-10-02T08:03:11.204Z,100912.69
2022-10-02T08:05:44.566Z,100924.19
2022-10-02T08:08:20.475Z,100929.25
2022-10-02T08:10:52.861Z,100929.50
2022-10-02T08:13:25.979Z,100941.28
2022-10-02T08:15:57.504Z,100925.94
2022-10-02T08:18:35.053Z,100931.81
2022-10-02T08:21:06.536Z,100927.75
2022-10-02T08:23:40.245Z,100925.78
2022-10-02T08:26:14.044Z,100931.97
2022-10-02T08:28:47.777Z,100935.41
2022-10-02T08:31:17.116Z,100949.69
2022-10-02T08:33:45.167Z,100956.75
2022-10-02T08:36:46.514Z,100974.88
2022-10-02T08:39:32.294Z,101003.66
2022-10-02T08:42:28.564Z,101101.50
2022-10-02T08:45:24.192Z,101242.22
2022-10-02T08:48:29.891Z,101338.06
2022-10-02T08:51:39.918Z,101359.22
2022-10-02T08:54:45.293Z,101353.91
2022-10-02T08:57:32.447Z,101353.41
2022-10-02T09:00:15.408Z,101358.38
2022-10-02T09:03:28.351Z,101368.94
2022-10-02T09:06:37.551Z,101379.88
2022-10-02T09:09:36.245Z,101368.47
2022-10-02T09:12:40.112Z,101357.69
2022-10-02T09:15:16.444Z,101379.81
2022-10-02T09:18:14.753Z,101372.13
2022-10-02T09:20:51.043Z,101379.88
2022-10-02T09:23:58.704Z,101380.81
2022-10-02T09:26:38.651Z,101381.94
2022-10-02T09:29:50.605Z,101391.47
2022-10-02T09:32:52.076Z,101393.00
2022-10-02T09:35:52.491Z,101381.72
2022-10-02T09:38:59.910Z,101365.75
2022-10-02T09:42:01.583Z,101377.53
2022-10-02T09:45:03.056Z,101375.00
2022-10-02T09:48:20.977Z,101381.50
2022-10-02T09:51:11.677Z,101394.91
2022-10-02T09:54:23.164Z,101388.22
2022-10-02T09:57:32.696Z,101386.25
2022-10-02T10:00:26.555Z,101399.22
2022-10-02T10:03:36.570Z,101398.47
2022-10-02T10:06:36.328Z,101399.34
2022-10-02T10:09:27.287Z,101404.34
2022-10-02T10:12:13.378Z,101402.41
2022-10-02T10:15:09.381Z,101376.88
2022-10-02T10:18:26.696Z,101373.84
2022-10-02T10:21:45.504Z,101227.84
2022-10-02T10:24:41.008Z,101062.69
2022-10-02T10:27:59.889Z,101010.88
2022-10-02T10:30:50.521Z,101021.53
2022-10-02T10:33:58.095Z,101070.69
2022-10-02T10:37:15.617Z,101083.47
2022-10-02T10:40:29.919Z,101027.81
2022-10-02T10:43:36.625Z,101044.59
2022-10-02T10:46:20.176Z,101042.38
2022-10-02T10:49:06.553Z,101061.81
2022-10-02T10:51:45.790Z,101103.69
2022-10-02T10:55:02.137Z,101185.13
2022-10-02T10:57:51.983Z,101274.41
2022-10-02T11:00:25.959Z,101283.38
2022-10-02T11:03:19.481Z,101238.63
2022-10-02T11:06:28.412Z,101114.00
2022-10-02T11:09:51.141Z,101024.19
2022-10-02T11:12:39.209Z,101040.56
2022-10-02T11:15:28.262Z,101030.81
2022-10-02T11:18:17.116Z,101025.31
2022-10-02T11:21:22.186Z,100921.06
2022-10-02T11:24:22.829Z,100890.53
2022-10-02T11:27:16.248Z,100774.84
2022-10-02T11:30:22.133Z,101031.38
2022-10-02T11:33:36.061Z,101062.66
2022-10-02T11:36:24.252Z,101176.75
2022-10-02T11:39:34.245Z,101134.25
2022-10-02T11:42:38.246Z,101106.16
2022-10-02T11:45:27.250Z,101082.41
2022-10-02T11:48:24.095Z,100967.91
2022-10-02T11:51:10.352Z,100925.66
2022-10-02T11:54:01.949Z,100970.75
2022-10-02T11:56:53.386Z,100973.00
2022-10-02T11:59:42.052Z,100971.16
2022-10-02T12:02:19.507Z,100957.25
2022-10-02T12:04:58.669Z,100911.38
2022-10-02T12:07:42.319Z,100915.94
2022-10-02T12:10:36.601Z,100900.59
2022-10-02T12:13:44.701Z,100889.28
2022-10-02T12:16:22.576Z,100905.81
2022-10-02T12:19:07.836Z,100883.75
2022-10-02T12:22:10.242Z,100875.59
2022-10-02T12:25:11.906Z,100814.97
2022-10-02T12:28:01.957Z,100798.50
2022-10-02T12:30:40.751Z,100808.66
2022-10-02T12:33:32.390Z,100807.91
2022-10-02T12:36:24.614Z,100791.97
2022-10-02T12:39:08.317Z,100826.22
2022-10-02T12:42:01.760Z,100851.88
2022-10-02T12:45:02.740Z,100809.81
2022-10-02T12:47:47.409Z,100830.97
2022-10-02T12:50:30.671Z,100806.00
2022-10-02T12:53:29.053Z,100818.69
2022-10-02T12:56:30.100Z,100794.66
2022-10-02T12:59:13.530Z,100757.72
2022-10-02T13:02:14.586Z,100774.97
2022-10-02T13:05:16.906Z,100790.66
2022-10-02T13:08:09.606Z,100800.50
2022-10-02T13:10:47.098Z,100806.53
2022-10-02T13:13:31.569Z,100802.53
2022-10-02T13:16:08.724Z,100803.09
2022-10-02T13:19:05.702Z,100824.38
2022-10-02T13:21:43.360Z,100799.66
2022-10-02T13:24:27.154Z,100794.63
2022-10-02T13:27:07.757Z,100789.25
2022-10-02T13:29:48.157Z,100802.88
2022-10-02T13:32:54.605Z,100819.81
2022-10-02T13:35:54.101Z,100815.56
2022-10-02T13:38:42.744Z,100806.03
2022-10-02T13:41:24.320Z,100817.16
2022-10-02T13:44:13.935Z,100794.94
2022-10-02T13:47:01.628Z,100818.88
2022-10-02T13:49:48.216Z,100808.28
2022-10-02T13:52:26.621Z,100812.84
2022-10-02T13:55:11.347Z,100816.31
2022-10-02T13:58:19.154Z,100828.19
2022-10-02T14:01:00.148Z,100808.03
2022-10-02T14:03:43.690Z,100797.75
2022-10-02T14:06:20.737Z,100780.44
2022-10-02T14:09:17.025Z,100823.31
2022-10-02T14:12:07.852Z,100820.78
2022-10-02T14:14:57.922Z,100820.25
2022-10-02T14:17:35.873Z,100831.06
2022-10-02T14:20:39.329Z,100837.63
2022-10-02T14:23:44.476Z,100854.69
2022-10-02T14:26:29.697Z,100843.44
2022-10-02T14:29:23.829Z,100852.66
2022-10-02T14:32:11.185Z,100870.38
2022-10-02T14:35:09.662Z,100874.81
2022-10-02T14:38:10.627Z,100864.31
2022-10-02T14:40:47.674Z,100848.03
2022-10-02T14:43:50.191Z,100853.16
2022-10-02T14:46:47.784Z,100891.94
2022-10-02T14:49:43.842Z,100856.94
2022-10-02T14:52:39.202Z,100860.13
2022-10-02T14:55:29.140Z,100877.97
2022-10-02T14:58:16.956Z,100875.59
2022-10-02T15:00:58.078Z,100882.25
2022-10-02T15:04:03.207Z,100898.38
2022-10-02T15:06:45.417Z,100907.91
2022-10-02T15:09:28.769Z,100887.28
2022-10-02T15:12:16.263Z,100872.38
2022-10-02T15:15:06.194Z,100895.03
2022-10-02T15:17:56.627Z,100860.31
2022-10-02T15:20:40.597Z,100924.00
2022-10-02T15:23:15.737Z,100882.66
2022-10-02T15:26:07.479Z,100888.59
2022-10-02T15:28:49.914Z,100847.03
2022-10-02T15:31:27.138Z,100825.94
2022-10-02T15:34:08.818Z,100815.41
2022-10-02T15:37:08.876Z,100792.16
2022-10-02T15:39:54.221Z,100815.25
2022-10-02T15:42:46.924Z,100844.97
2022-10-02T15:45:46.971Z,100852.66
2022-10-02T15:48:52.565Z,100857.25
2022-10-02T15:51:41.067Z,100851.91
2022-10-02T15:54:21.070Z,100856.84
2022-10-02T15:57:08.811Z,100851.16
2022-10-02T16:00:02.963Z,100929.66
2022-10-02T16:02:54.525Z,100940.78
2022-10-02T16:05:36.116Z,100914.94
2022-10-02T16:08:19.705Z,100853.72
2022-10-02T16:11:08.330Z,100726.09
2022-10-02T16:13:51.224Z,100663.13
2022-10-02T16:16:32.433Z,100879.28
2022-10-02T16:19:20.808Z,100878.09
2022-10-02T16:22:30.249Z,100950.44
2022-10-02T16:25:45.090Z,100983.13
2022-10-02T16:28:39.660Z,101073.69
2022-10-02T16:31:33.005Z,101116.34
2022-10-02T16:34:16.222Z,101121.59
2022-10-02T16:36:53.689Z,101105.28
2022-10-02T16:40:08.903Z,101113.03
2022-10-02T16:42:50.383Z,101130.66
2022-10-02T16:45:48.455Z,101118.53
2022-10-02T16:48:31.283Z,101082.53
2022-10-02T16:51:25.586Z,101068.34
2022-10-02T16:54:09.916Z,101073.41
2022-10-02T16:56:57.203Z,101090.16
2022-10-02T16:59:35.426Z,101102.56
2022-10-02T17:02:19.261Z,101075.41
2022-10-02T17:05:14.196Z,101065.63
2022-10-02T17:07:57.835Z,101102.31
2022-10-02T17:10:39.616Z,101095.13
2022-10-02T17:13:39.760Z,101059.03
2022-10-02T17:16:21.162Z,101083.16
2022-10-02T17:19:04.541Z,101061.09
2022-10-02T17:21:59.242Z,101101.41
2022-10-02T17:24:43.057Z,101080.94
2022-10-02T17:27:38.730Z,101096.47
2022-10-02T17:30:21.137Z,101078.41
2022-10-02T17:33:07.898Z,101036.88
2022-10-02T17:35:52.805Z,101046.91
2022-10-02T17:38:45.592Z,100993.50
2022-10-02T17:41:28.509Z,101001.09
2022-10-02T17:47:03.533Z,101035.53
2022-10-02T17:49:52.431Z,101020.19
2022-10-02T17:52:56.253Z,101051.53
2022-10-02T17:56:08.749Z,101061.16
2022-10-02T17:58:47.604Z,101098.13
2022-10-02T18:01:25.593Z,101108.34
2022-10-02T18:04:08.959Z,101150.31
2022-10-02T18:06:47.911Z,101163.59
2022-10-02T18:09:45.324Z,101172.63
2022-10-02T18:12:35.001Z,101180.44
2022-10-02T18:15:33.405Z,101199.47
2022-10-02T18:18:24.807Z,101202.72
2022-10-02T18:21:09.333Z,101263.19
2022-10-02T18:24:04.680Z,101328.50
2022-10-02T18:26:58.315Z,101398.41
2022-10-02T18:29:52.066Z,101522.44
2022-10-02T18:32:53.317Z,101641.84
2022-10-02T18:35:38.896Z,101744.50
2022-10-02T18:38:29.647Z,101814.50
2022-10-02T18:41:27.470Z,101850.59
2022-10-02T18:44:12.606Z,101843.63
2022-10-02T18:46:51.900Z,101851.91
2022-10-02T18:49:44.254Z,101820.53
2022-10-02T18:52:35.651Z,101841.69
2022-10-02T18:55:18.688Z,101856.53
2022-10-02T18:57:59.790Z,101861.91
2022-10-02T19:01:05.552Z,101835.03
2022-10-02T19:04:07.199Z,101873.63
2022-10-02T19:06:53.417Z,101838.34
2022-10-02T19:09:28.596Z,101862.38
2022-10-02T19:12:25.619Z,101862.75
2022-10-02T19:15:24.067Z,101843.84
2022-10-02T19:18:01.857Z,101847.34
2022-10-02T19:20:49.572Z,101844.97
2022-10-02T19:23:28.239Z,101867.47
2022-10-02T19:26:03.009Z,101864.88
2022-10-02T19:28:35.635Z,101859.41
2022-10-02T19:31:08.079Z,101877.06
2022-10-02T19:33:45.091Z,101871.88
2022-10-02T19:36:20.064Z,101845.38
2022-10-02T19:38:56.615Z,101871.94
2022-10-02T19:41:27.288Z,101873.03
2022-10-02T19:44:07.004Z,101867.63
2022-10-02T19:46:41.105Z,101858.16
2022-10-02T19:49:21.127Z,101854.13
2022-10-02T19:51:52.028Z,101877.63
2022-10-02T19:54:26.446Z,101868.34
2022-10-02T20:00:57.810Z,101872.88
2022-10-02T20:03:27.353Z,101885.16
2022-10-02T20:06:01.284Z,101897.16
2022-10-02T20:08:36.373Z,101894.28
2022-10-02T20:11:13.818Z,101912.03
2022-10-02T20:13:50.647Z,101924.44
2022-10-02T20:16:52.061Z,101911.25
2022-10-02T20:19:24.764Z,101922.41
2022-10-02T20:21:58.367Z,101911.00
2022-10-02T20:24:32.901Z,101913.88
2022-10-02T20:27:06.639Z,101918.16
2022-10-02T20:29:45.983Z,101915.53
2022-10-02T20:32:23.721Z,101922.53
2022-10-02T20:34:59.006Z,101916.19
2022-10-02T20:37:31.344Z,101918.06
2022-10-02T20:40:07.007Z,101913.69
2022-10-02T20:42:46.339Z,101932.91
2022-10-02T20:45:18.409Z,101924.63
2022-10-02T20:48:20.180Z,101936.97
2022-10-02T20:50:59.047Z,101935.53
2022-10-02T20:54:18.566Z,101928.41
2022-10-02T20:57:20.786Z,101945.28
2022-10-02T21:00:15.105Z,101958.19
2022-10-02T21:03:20.052Z,101962.31
2022-10-02T21:06:21.674Z,101969.47
2022-10-02T21:09:42.758Z,101969.34
2022-10-02T21:12:38.933Z,101972.81
2022-10-02T21:15:29.609Z,101972.03
2022-10-02T21:18:25.101Z,101976.47
2022-10-02T21:21:27.421Z,101976.78
2022-10-02T21:24:40.446Z,101972.31
2022-10-02T21:30:48.143Z,101985.03
2022-10-02T21:33:22.950Z,101991.09
2022-10-02T21:36:08.825Z,101991.50
2022-10-02T21:39:08.639Z,101991.50
2022-10-02T21:42:17.893Z,102012.53
2022-10-02T21:45:19.235Z,102015.47
2022-10-02T21:48:23.572Z,102008.22
2022-10-02T21:51:31.306Z,102021.53
2022-10-02T21:54:30.281Z,102028.47
2022-10-02T21:57:35.601Z,102016.94
2022-10-02T22:00:13.131Z,102025.78
2022-10-02T22:03:19.580Z,102031.09
2022-10-02T22:06:21.616Z,102023.19
2022-10-02T22:09:18.268Z,102032.88
2022-10-02T22:12:02.080Z,102039.03
2022-10-02T22:14:34.831Z,102036.47
2022-10-02T22:17:18.486Z,102036.44
2022-10-02T22:20:08.832Z,102034.34
2022-10-02T22:22:54.977Z,102031.88
2022-10-02T22:25:39.633Z,102036.34
2022-10-02T22:28:28.057Z,102042.63
2022-10-02T22:31:33.046Z,102038.47
2022-10-02T22:34:22.421Z,102044.56
2022-10-02T22:37:05.417Z,102045.66
2022-10-02T22:39:38.063Z,102047.41
2022-10-02T22:42:13.217Z,102052.66
2022-10-02T22:44:49.860Z,102057.16
2022-10-02T22:47:28.787Z,102050.25
2022-10-02T22:50:04.100Z,102055.59
2022-10-02T22:52:37.847Z,102056.53
2022-10-02T22:55:14.374Z,102073.09
2022-10-02T22:57:47.496Z,102065.44
2022-10-02T23:00:19.456Z,102059.13
2022-10-02T23:02:56.186Z,102062.84
2022-10-02T23:05:33.105Z,102056.69
2022-10-02T23:08:06.268Z,102062.03
2022-10-02T23:10:46.642Z,102068.25
2022-10-02T23:13:22.646Z,102063.91
2022-10-02T23:15:57.949Z,102063.16
2022-10-02T23:18:43.132Z,102063.19
2022-10-02T23:21:25.907Z,102057.00
2022-10-02T23:24:07.075Z,102059.78
2022-10-02T23:26:48.390Z,102065.88
2022-10-02T23:29:27.074Z,102077.38
2022-10-02T23:32:02.927Z,102073.03
2022-10-02T23:34:45.227Z,102061.56
2022-10-02T23:37:21.369Z,102077.28
2022-10-02T23:39:57.849Z,102078.13
2022-10-02T23:42:34.559Z,102085.28
2022-10-02T23:45:08.395Z,102080.00
2022-10-02T23:47:51.042Z,102089.69
2022-10-02T23:50:23.749Z,102090.44
2022-10-02T23:53:05.360Z,102083.41
2022-10-02T23:55:59.863Z,102088.66
2022-10-02T23:58:40.459Z,102089.72
